aviador You're here:

SCAR Decoded Metar

ARICA in CHILE
Report Time2018-06-25 06:00:00
UTC Time2018-06-25 06:11:36
Flight Rules vfr VFR
Wind160° at 02 kt
W.Decomp.*RWY 20: 1.6 kt HW 1.2 kt LCW
W.Rank160° ranks 14
Current wind is below 160° avg. (3.3)
Visibility9999 m
Phenomena:N/A
Clouds:Overcast 030 Hf
Expected CloudBase > 1,600 ft AGL from Temp-Dew spread
Ceiling3,000 ft
Temp17°C (ISA +2)
Dew Point13°C (77% RH)
QNH1017 hPa
Density Alt541 ft
Elevation194 ft
Report Wrong Elevation
Raw Report
SCAR 250600Z 16002KT 9999 OVC030 17/13 Q1017=

Extra information for SCAR:More info

Metar Taf Metar & Taf Last 4 Metars F.Rules Stats Wind Profile Meteogram Temp Stats Airport Information Weather charts Add Link Nearby VenuesMetar ALERT Operation Metar Decoded Social comments